createdAt,value
2019-04-30T00:02:09.613Z,99.90
2019-04-30T00:04:42.692Z,99.90
2019-04-30T00:07:15.493Z,99.90
2019-04-30T00:09:49.329Z,99.90
2019-04-30T00:12:17.642Z,99.90
2019-04-30T00:14:47.416Z,99.90
2019-04-30T00:17:19.691Z,99.90
2019-04-30T00:19:50.378Z,99.90
2019-04-30T00:22:31.100Z,99.90
2019-04-30T00:24:51.436Z,99.90
2019-04-30T00:27:25.761Z,99.90
2019-04-30T00:29:52.828Z,99.90
2019-04-30T00:32:22.544Z,99.90
2019-04-30T00:34:52.628Z,99.90
2019-04-30T00:37:22.375Z,99.90
2019-04-30T00:39:53.079Z,99.90
2019-04-30T00:42:24.320Z,99.90
2019-04-30T00:44:55.354Z,99.90
2019-04-30T00:47:25.730Z,99.90
2019-04-30T00:49:58.788Z,99.90
2019-04-30T00:52:29.574Z,99.90
2019-04-30T00:55:00.359Z,99.90
2019-04-30T00:57:30.241Z,99.90
2019-04-30T00:59:59.914Z,99.90
2019-04-30T01:03:00.943Z,99.90
2019-04-30T01:05:32.504Z,99.90
2019-04-30T01:08:02.401Z,99.90
2019-04-30T01:10:32.560Z,99.90
2019-04-30T01:13:08.037Z,99.90
2019-04-30T01:15:34.081Z,99.90
2019-04-30T01:18:03.916Z,99.90
2019-04-30T01:20:34.425Z,99.90
2019-04-30T01:23:08.008Z,99.90
2019-04-30T01:25:35.877Z,99.90
2019-04-30T01:28:05.594Z,99.90
2019-04-30T01:30:35.308Z,99.90
2019-04-30T01:33:05.181Z,99.90
2019-04-30T01:35:35.258Z,99.90
2019-04-30T01:38:11.112Z,99.90
2019-04-30T01:40:38.392Z,99.90
2019-04-30T01:43:09.095Z,99.90
2019-04-30T01:45:39.511Z,99.90
2019-04-30T01:48:12.614Z,99.90
2019-04-30T01:50:42.005Z,99.90
2019-04-30T01:53:13.373Z,99.90
2019-04-30T01:56:12.219Z,99.90
2019-04-30T01:58:54.515Z,99.90
2019-04-30T02:01:26.057Z,99.90
2019-04-30T02:03:56.267Z,99.90
2019-04-30T02:06:26.125Z,99.90
2019-04-30T02:08:55.936Z,99.90
2019-04-30T02:11:25.732Z,99.90
2019-04-30T02:13:55.961Z,99.90
2019-04-30T02:16:26.099Z,99.90
2019-04-30T02:18:55.960Z,99.90
2019-04-30T02:21:25.730Z,99.90
2019-04-30T02:23:56.034Z,99.90
2019-04-30T02:26:25.932Z,99.90
2019-04-30T02:28:55.654Z,99.90
2019-04-30T02:31:25.471Z,99.90
2019-04-30T02:34:01.040Z,99.90
2019-04-30T02:36:46.555Z,99.90
2019-04-30T02:39:16.186Z,99.90
2019-04-30T02:41:47.221Z,99.90
2019-04-30T02:44:19.632Z,99.90
2019-04-30T02:46:51.362Z,99.90
2019-04-30T02:49:22.855Z,99.90
2019-04-30T02:51:53.815Z,99.90
2019-04-30T02:54:31.192Z,99.90
2019-04-30T02:57:25.769Z,99.90
2019-04-30T03:00:06.402Z,99.90
2019-04-30T03:02:36.281Z,99.90
2019-04-30T03:05:06.807Z,99.90
2019-04-30T03:07:36.600Z,99.90
2019-04-30T03:10:09.771Z,99.90
2019-04-30T03:12:40.445Z,99.90
2019-04-30T03:15:10.529Z,99.90
2019-04-30T03:18:01.414Z,99.90
2019-04-30T03:20:59.864Z,99.90
2019-04-30T03:23:30.207Z,99.90
2019-04-30T03:26:00.075Z,99.90
2019-04-30T03:28:30.257Z,99.90
2019-04-30T03:31:04.520Z,99.90
2019-04-30T03:33:33.025Z,99.90
2019-04-30T03:36:02.920Z,99.90
2019-04-30T03:38:32.821Z,99.90
2019-04-30T03:41:21.641Z,99.90
2019-04-30T03:43:51.767Z,99.90
2019-04-30T03:46:21.428Z,99.90
2019-04-30T03:48:51.216Z,99.90
2019-04-30T03:51:21.202Z,99.90
2019-04-30T03:53:50.945Z,99.90
2019-04-30T03:56:22.890Z,99.90
2019-04-30T03:58:52.265Z,99.90
2019-04-30T04:01:40.001Z,99.90
2019-04-30T04:04:21.742Z,99.90
2019-04-30T04:07:00.249Z,99.90
2019-04-30T04:09:40.106Z,99.90
2019-04-30T04:12:22.390Z,99.90
2019-04-30T04:14:52.750Z,99.90
2019-04-30T04:17:23.095Z,99.90
2019-04-30T04:19:52.929Z,99.90
2019-04-30T04:22:23.532Z,99.90
2019-04-30T04:24:53.395Z,99.90
2019-04-30T04:27:23.229Z,99.90
2019-04-30T04:29:53.001Z,99.90
2019-04-30T04:32:24.211Z,99.90
2019-04-30T04:34:54.386Z,99.90
2019-04-30T04:37:24.147Z,99.90
2019-04-30T04:39:53.895Z,99.90
2019-04-30T04:42:23.975Z,99.90
2019-04-30T04:44:53.722Z,99.90
2019-04-30T04:47:23.806Z,99.90
2019-04-30T04:49:54.190Z,99.90
2019-04-30T04:52:24.329Z,99.90
2019-04-30T04:54:54.288Z,99.90
2019-04-30T04:57:24.654Z,99.90
2019-04-30T04:59:54.429Z,99.90
2019-04-30T05:02:32.805Z,99.90
2019-04-30T05:05:03.385Z,99.90
2019-04-30T05:07:33.200Z,99.90
2019-04-30T05:10:02.971Z,99.90
2019-04-30T05:12:32.798Z,99.90
2019-04-30T05:15:02.604Z,99.90
2019-04-30T05:17:32.533Z,99.90
2019-04-30T05:20:02.408Z,99.90
2019-04-30T05:22:32.584Z,99.90
2019-04-30T05:25:03.081Z,99.90
2019-04-30T05:27:33.418Z,99.90
2019-04-30T05:30:03.321Z,99.90
2019-04-30T05:32:33.196Z,99.90
2019-04-30T05:35:03.700Z,99.90
2019-04-30T05:37:33.484Z,99.90
2019-04-30T05:40:03.248Z,99.90
2019-04-30T05:42:33.045Z,99.90
2019-04-30T05:45:03.481Z,99.90
2019-04-30T05:47:33.235Z,99.90
2019-04-30T05:50:02.817Z,99.90
2019-04-30T05:52:32.637Z,99.90
2019-04-30T05:55:02.489Z,99.90
2019-04-30T05:57:32.434Z,99.90
2019-04-30T06:00:02.347Z,99.90
2019-04-30T06:02:34.091Z,99.90
2019-04-30T06:05:03.573Z,99.90
2019-04-30T06:07:33.320Z,99.90
2019-04-30T06:10:11.625Z,99.90
2019-04-30T06:13:00.418Z,99.90
2019-04-30T06:15:34.178Z,99.90
2019-04-30T06:18:11.509Z,99.90
2019-04-30T06:20:38.532Z,99.90
2019-04-30T06:23:09.596Z,99.90
2019-04-30T06:25:55.711Z,99.90
2019-04-30T06:28:12.233Z,99.90
2019-04-30T06:30:42.556Z,99.90
2019-04-30T06:33:12.309Z,99.90
2019-04-30T06:35:42.359Z,99.90
2019-04-30T06:38:12.288Z,99.90
2019-04-30T06:40:42.637Z,99.90
2019-04-30T06:43:13.253Z,99.90
2019-04-30T06:45:44.508Z,99.90
2019-04-30T06:48:19.917Z,99.90
2019-04-30T06:50:50.029Z,99.90
2019-04-30T06:53:19.865Z,99.90
2019-04-30T06:55:50.313Z,99.90
2019-04-30T06:58:20.845Z,99.90
2019-04-30T07:00:50.777Z,99.90
2019-04-30T07:03:20.591Z,99.90
2019-04-30T07:05:50.718Z,99.90
2019-04-30T07:08:55.867Z,99.90
2019-04-30T07:11:35.856Z,99.90
2019-04-30T07:14:05.566Z,99.90
2019-04-30T07:16:35.473Z,99.90
2019-04-30T07:19:05.328Z,99.90
2019-04-30T07:21:36.581Z,99.90
2019-04-30T07:24:09.293Z,99.90
2019-04-30T07:26:39.423Z,99.90
2019-04-30T07:29:09.923Z,99.90
2019-04-30T07:31:40.049Z,99.90
2019-04-30T07:34:10.092Z,99.90
2019-04-30T07:36:46.783Z,99.90
2019-04-30T07:39:10.178Z,99.90
2019-04-30T07:41:40.307Z,99.90
2019-04-30T07:44:10.873Z,99.90
2019-04-30T07:46:43.856Z,99.90
2019-04-30T07:49:10.166Z,99.90
2019-04-30T07:51:41.782Z,99.90
2019-04-30T07:54:10.109Z,99.90
2019-04-30T07:56:41.663Z,99.90
2019-04-30T07:59:11.006Z,99.90
2019-04-30T08:02:00.763Z,99.90
2019-04-30T08:04:29.293Z,99.90
2019-04-30T08:06:59.726Z,99.90
2019-04-30T08:09:39.111Z,99.90
2019-04-30T08:12:00.771Z,99.90
2019-04-30T08:14:29.434Z,99.90
2019-04-30T08:16:58.951Z,99.90
2019-04-30T08:19:28.781Z,99.90
2019-04-30T08:21:58.582Z,99.90
2019-04-30T08:24:29.195Z,99.90
2019-04-30T08:26:59.133Z,97.30
2019-04-30T08:29:29.524Z,97.90
2019-04-30T08:31:59.359Z,97.10
2019-04-30T08:34:29.257Z,93.00
2019-04-30T08:36:59.479Z,91.80
2019-04-30T08:39:29.458Z,86.60
2019-04-30T08:43:55.047Z,90.00
2019-04-30T08:46:24.057Z,87.90
2019-04-30T08:48:53.918Z,81.90
2019-04-30T08:51:23.891Z,83.80
2019-04-30T08:53:52.536Z,82.60
2019-04-30T08:56:22.761Z,80.70
2019-04-30T08:58:54.873Z,81.30
2019-04-30T09:01:24.220Z,84.60
2019-04-30T09:03:52.960Z,90.00
2019-04-30T09:06:28.721Z,90.80
2019-04-30T09:09:00.217Z,90.80
2019-04-30T09:11:35.521Z,87.70
2019-04-30T09:13:59.341Z,84.90
2019-04-30T09:17:20.259Z,88.10
2019-04-30T09:19:49.121Z,91.60
2019-04-30T09:22:19.475Z,92.00
2019-04-30T09:24:49.782Z,92.20
2019-04-30T09:27:19.693Z,88.30
2019-04-30T09:29:49.188Z,85.20
2019-04-30T09:32:19.290Z,82.70
2019-04-30T09:34:48.822Z,80.90
2019-04-30T09:37:18.719Z,86.30
2019-04-30T09:39:49.415Z,84.40
2019-04-30T09:42:19.505Z,86.30
2019-04-30T09:44:49.304Z,88.20
2019-04-30T09:47:19.915Z,89.10
2019-04-30T09:49:49.360Z,89.40
2019-04-30T09:52:19.322Z,90.20
2019-04-30T09:54:50.107Z,90.40
2019-04-30T09:57:19.295Z,91.80
2019-04-30T09:59:48.634Z,91.30
2019-04-30T10:02:19.121Z,92.20
2019-04-30T10:04:48.544Z,92.20
2019-04-30T10:07:19.367Z,92.40
2019-04-30T10:09:50.611Z,92.10
2019-04-30T10:12:19.663Z,92.70
2019-04-30T10:14:49.725Z,94.10
2019-04-30T10:17:38.125Z,93.20
2019-04-30T10:20:08.884Z,94.30
2019-04-30T10:22:39.914Z,94.00
2019-04-30T10:25:10.082Z,93.60
2019-04-30T10:27:39.025Z,94.70
2019-04-30T10:30:09.385Z,94.60
2019-04-30T10:32:38.150Z,95.00
2019-04-30T10:35:07.021Z,95.80
2019-04-30T10:37:35.820Z,95.80
2019-04-30T10:40:04.973Z,96.00
2019-04-30T10:42:34.851Z,95.70
2019-04-30T10:45:03.788Z,95.80
2019-04-30T10:47:32.790Z,95.50
2019-04-30T10:50:01.684Z,94.80
2019-04-30T10:52:30.360Z,95.30
2019-04-30T10:54:59.545Z,95.00
2019-04-30T10:57:28.541Z,95.70
2019-04-30T10:59:58.712Z,96.20
2019-04-30T11:02:28.841Z,95.80
2019-04-30T11:04:58.100Z,96.50
2019-04-30T11:07:28.699Z,97.10
2019-04-30T11:09:58.878Z,96.40
2019-04-30T11:12:29.216Z,95.50
2019-04-30T11:14:58.036Z,96.60
2019-04-30T11:17:26.908Z,95.10
2019-04-30T11:19:55.874Z,94.80
2019-04-30T11:22:24.742Z,93.40
2019-04-30T11:24:59.546Z,94.50
2019-04-30T11:27:24.610Z,96.30
2019-04-30T11:30:00.625Z,95.30
2019-04-30T11:32:25.167Z,96.70
2019-04-30T11:34:53.953Z,96.70
2019-04-30T11:37:22.865Z,95.40
2019-04-30T11:39:51.507Z,95.80
2019-04-30T11:42:20.259Z,96.20
2019-04-30T11:44:49.032Z,95.80
2019-04-30T11:47:24.271Z,96.50
2019-04-30T11:49:53.237Z,94.90
2019-04-30T11:52:21.922Z,95.20
2019-04-30T11:54:54.178Z,95.00
2019-04-30T11:57:21.238Z,95.10
2019-04-30T11:59:50.026Z,96.20
2019-04-30T12:02:33.685Z,95.50
2019-04-30T12:05:05.042Z,96.00
2019-04-30T12:07:59.712Z,96.40
2019-04-30T12:11:05.786Z,96.00
2019-04-30T12:13:34.559Z,95.50
2019-04-30T12:16:03.320Z,94.60
2019-04-30T12:18:32.122Z,96.60
2019-04-30T12:21:00.837Z,96.30
2019-04-30T12:23:29.913Z,95.30
2019-04-30T12:26:01.017Z,95.50
2019-04-30T12:28:29.665Z,94.90
2019-04-30T12:30:58.909Z,95.60
2019-04-30T12:33:27.834Z,95.40
2019-04-30T12:35:56.514Z,95.80
2019-04-30T12:38:25.591Z,96.30
2019-04-30T12:40:54.419Z,96.30
2019-04-30T12:43:22.959Z,96.10
2019-04-30T12:46:02.294Z,97.40
2019-04-30T12:48:29.571Z,97.80
2019-04-30T12:51:20.287Z,96.90
2019-04-30T12:53:55.376Z,97.90
2019-04-30T12:56:49.387Z,97.80
2019-04-30T12:59:19.235Z,98.40
2019-04-30T13:01:49.576Z,98.90
2019-04-30T13:04:19.353Z,99.40
2019-04-30T13:06:48.966Z,99.60
2019-04-30T13:09:20.258Z,99.80
2019-04-30T13:11:50.730Z,97.60
2019-04-30T13:14:20.501Z,96.50
2019-04-30T13:16:49.817Z,97.00
2019-04-30T13:19:18.579Z,97.10
2019-04-30T13:21:47.364Z,98.10
2019-04-30T13:24:16.082Z,98.50
2019-04-30T13:26:44.896Z,98.40
2019-04-30T13:29:18.560Z,98.40
2019-04-30T13:31:50.098Z,98.50
2019-04-30T13:34:35.811Z,98.50
2019-04-30T13:37:04.456Z,98.00
2019-04-30T13:39:50.137Z,97.90
2019-04-30T13:42:20.029Z,98.30
2019-04-30T13:44:49.269Z,97.70
2019-04-30T13:47:19.213Z,98.80
2019-04-30T13:49:49.494Z,98.20
2019-04-30T13:52:18.273Z,98.50
2019-04-30T13:54:47.139Z,98.30
2019-04-30T13:57:16.384Z,99.00
2019-04-30T13:59:45.143Z,98.20
2019-04-30T14:02:13.977Z,97.70
2019-04-30T14:05:04.850Z,98.10
2019-04-30T14:07:51.464Z,97.70
2019-04-30T14:10:20.175Z,97.60
2019-04-30T14:12:54.647Z,98.00
2019-04-30T14:15:23.456Z,98.20
2019-04-30T14:17:52.245Z,98.60
2019-04-30T14:20:20.936Z,98.70
2019-04-30T14:22:49.594Z,98.40
2019-04-30T14:25:18.259Z,98.80
2019-04-30T14:27:51.829Z,97.70
2019-04-30T14:30:19.170Z,98.30
2019-04-30T14:32:50.559Z,98.60
2019-04-30T14:35:18.760Z,98.50
2019-04-30T14:37:49.418Z,99.20
2019-04-30T14:40:20.288Z,98.70
2019-04-30T14:42:54.896Z,98.90
2019-04-30T14:45:31.067Z,99.30
2019-04-30T14:48:06.097Z,99.80
2019-04-30T14:50:35.665Z,98.70
2019-04-30T14:53:09.483Z,99.30
2019-04-30T14:55:49.561Z,99.00
2019-04-30T14:58:47.714Z,99.10
2019-04-30T15:01:24.876Z,98.30
2019-04-30T15:03:53.444Z,98.50
2019-04-30T15:06:22.454Z,99.00
2019-04-30T15:08:51.405Z,99.30
2019-04-30T15:11:20.029Z,98.40
2019-04-30T15:13:49.472Z,98.80
2019-04-30T15:16:18.319Z,99.40
2019-04-30T15:18:46.972Z,99.00
2019-04-30T15:21:15.884Z,99.50
2019-04-30T15:24:03.811Z,99.90
2019-04-30T15:26:32.515Z,99.20
2019-04-30T15:29:01.284Z,99.50
2019-04-30T15:31:30.064Z,99.80
2019-04-30T15:34:04.678Z,99.90
2019-04-30T15:36:33.390Z,99.90
2019-04-30T15:39:10.794Z,99.90
2019-04-30T15:41:40.583Z,99.90
2019-04-30T15:44:09.457Z,99.90
2019-04-30T15:46:39.662Z,99.90
2019-04-30T15:51:50.516Z,99.90
2019-04-30T15:54:21.008Z,99.90
2019-04-30T15:56:51.522Z,99.90
2019-04-30T15:59:54.299Z,99.90
2019-04-30T16:02:31.082Z,99.90
2019-04-30T16:05:17.765Z,99.90
2019-04-30T16:07:56.495Z,99.90
2019-04-30T16:10:50.188Z,99.90
2019-04-30T16:13:20.594Z,99.90
2019-04-30T16:15:49.388Z,99.90
2019-04-30T16:18:19.577Z,99.90
2019-04-30T16:20:49.854Z,99.90
2019-04-30T16:23:19.178Z,99.90
2019-04-30T16:25:49.098Z,99.90
2019-04-30T16:28:19.475Z,99.90
2019-04-30T16:30:48.249Z,99.90
2019-04-30T16:33:19.501Z,99.90
2019-04-30T16:35:51.066Z,99.90
2019-04-30T16:38:21.245Z,99.90
2019-04-30T16:40:51.262Z,99.90
2019-04-30T16:43:21.196Z,99.90
2019-04-30T16:45:50.971Z,99.90
2019-04-30T16:48:20.797Z,99.90
2019-04-30T16:50:51.198Z,99.90
2019-04-30T16:53:21.138Z,99.90
2019-04-30T16:55:51.342Z,99.90
2019-04-30T16:58:21.288Z,99.90
2019-04-30T17:00:51.070Z,99.90
2019-04-30T17:03:28.869Z,99.90
2019-04-30T17:06:04.987Z,99.90
2019-04-30T17:08:42.234Z,99.90
2019-04-30T17:11:19.766Z,99.90
2019-04-30T17:13:55.587Z,99.90
2019-04-30T17:16:25.752Z,99.90
2019-04-30T17:18:55.736Z,99.90
2019-04-30T17:21:25.524Z,99.90
2019-04-30T17:23:55.464Z,99.90
2019-04-30T17:26:25.294Z,99.90
2019-04-30T17:28:55.152Z,99.90
2019-04-30T17:31:25.287Z,99.90
2019-04-30T17:33:55.022Z,99.90
2019-04-30T17:36:24.749Z,99.90
2019-04-30T17:38:54.541Z,99.90
2019-04-30T17:41:24.287Z,99.90
2019-04-30T17:43:53.967Z,99.90
2019-04-30T17:46:23.812Z,99.90
2019-04-30T17:48:53.631Z,99.90
2019-04-30T17:51:23.422Z,99.90
2019-04-30T17:54:10.862Z,99.90
2019-04-30T17:56:40.853Z,99.90
2019-04-30T17:59:10.549Z,99.90
2019-04-30T18:01:41.883Z,99.90
2019-04-30T18:04:11.725Z,99.90
2019-04-30T18:06:41.519Z,99.90
2019-04-30T18:09:11.755Z,99.90
2019-04-30T18:11:41.603Z,99.90
2019-04-30T18:14:11.343Z,99.90
2019-04-30T18:16:41.220Z,99.90
2019-04-30T18:19:30.194Z,99.90
2019-04-30T18:22:09.513Z,99.90
2019-04-30T18:24:59.174Z,99.90
2019-04-30T18:27:42.849Z,99.90
2019-04-30T18:30:06.480Z,99.90
2019-04-30T18:32:36.307Z,99.90
2019-04-30T18:35:06.654Z,99.90
2019-04-30T18:37:36.433Z,99.90
2019-04-30T18:40:06.933Z,99.90
2019-04-30T18:42:36.794Z,99.90
2019-04-30T18:45:06.962Z,99.90
2019-04-30T18:47:36.870Z,99.90
2019-04-30T18:50:09.224Z,99.90
2019-04-30T18:52:40.379Z,99.90
2019-04-30T18:55:10.414Z,99.90
2019-04-30T18:57:40.333Z,99.90
2019-04-30T19:00:10.942Z,99.90
2019-04-30T19:02:41.344Z,99.90
2019-04-30T19:05:15.948Z,99.90
2019-04-30T19:07:52.326Z,99.90
2019-04-30T19:10:53.313Z,99.90
2019-04-30T19:13:41.156Z,99.90
2019-04-30T19:16:49.555Z,99.90
2019-04-30T19:19:25.674Z,99.90
2019-04-30T19:21:55.658Z,99.90
2019-04-30T19:24:25.408Z,99.90
2019-04-30T19:26:55.290Z,99.90
2019-04-30T19:29:25.339Z,99.90
2019-04-30T19:31:55.751Z,99.90
2019-04-30T19:34:28.765Z,99.90
2019-04-30T19:36:58.596Z,99.90
2019-04-30T19:39:29.285Z,99.90
2019-04-30T19:42:01.007Z,99.90
2019-04-30T19:44:32.342Z,99.90
2019-04-30T19:47:02.647Z,99.90
2019-04-30T19:49:32.455Z,99.90
2019-04-30T19:52:08.631Z,99.90
2019-04-30T19:54:33.640Z,99.90
2019-04-30T19:57:03.722Z,99.90
2019-04-30T19:59:33.529Z,99.90
2019-04-30T20:02:05.319Z,99.90
2019-04-30T20:04:36.809Z,99.90
2019-04-30T20:07:08.711Z,99.90
2019-04-30T20:09:38.023Z,99.90
2019-04-30T20:12:07.721Z,99.90
2019-04-30T20:14:39.073Z,99.90
2019-04-30T20:17:09.031Z,99.90
2019-04-30T20:19:38.848Z,99.90
2019-04-30T20:22:09.545Z,99.90
2019-04-30T20:24:39.503Z,99.90
2019-04-30T20:27:10.233Z,99.90
2019-04-30T20:29:40.912Z,99.90
2019-04-30T20:32:10.716Z,99.90
2019-04-30T20:34:42.127Z,99.90
2019-04-30T20:37:11.971Z,99.90
2019-04-30T20:39:52.929Z,99.90
2019-04-30T20:42:22.658Z,99.90
2019-04-30T20:44:52.731Z,99.90
2019-04-30T20:47:22.484Z,99.90
2019-04-30T20:49:52.319Z,99.90
2019-04-30T20:52:22.111Z,99.90
2019-04-30T20:54:51.989Z,99.90
2019-04-30T20:57:21.700Z,99.90
2019-04-30T20:59:51.902Z,99.90
2019-04-30T21:02:21.730Z,99.90
2019-04-30T21:04:51.904Z,99.90
2019-04-30T21:07:22.353Z,99.90
2019-04-30T21:09:52.174Z,99.90
2019-04-30T21:12:21.988Z,99.90
2019-04-30T21:14:51.735Z,99.90
2019-04-30T21:17:21.550Z,99.90
2019-04-30T21:19:51.482Z,99.90
2019-04-30T21:22:22.866Z,99.90
2019-04-30T21:24:52.932Z,99.90
2019-04-30T21:27:22.834Z,99.90
2019-04-30T21:29:52.947Z,99.90
2019-04-30T21:32:48.637Z,99.90
2019-04-30T21:35:40.430Z,99.90
2019-04-30T21:38:10.208Z,99.90
2019-04-30T21:40:40.062Z,99.90
2019-04-30T21:43:10.202Z,99.90
2019-04-30T21:45:40.216Z,99.90
2019-04-30T21:48:09.958Z,99.90
2019-04-30T21:50:39.872Z,99.90
2019-04-30T21:53:10.023Z,99.90
2019-04-30T21:55:40.090Z,99.90
2019-04-30T21:58:09.821Z,99.90
2019-04-30T22:01:01.497Z,99.90
2019-04-30T22:03:31.410Z,99.90
2019-04-30T22:06:01.276Z,99.90
2019-04-30T22:08:31.037Z,99.90
2019-04-30T22:11:00.803Z,99.90
2019-04-30T22:13:31.092Z,99.90
2019-04-30T22:16:00.841Z,99.90
2019-04-30T22:18:30.962Z,99.90
2019-04-30T22:21:01.066Z,99.90
2019-04-30T22:23:30.770Z,99.90
2019-04-30T22:26:00.589Z,99.90
2019-04-30T22:28:30.850Z,99.90
2019-04-30T22:31:00.854Z,99.90
2019-04-30T22:33:30.963Z,99.90
2019-04-30T22:36:10.898Z,99.90
2019-04-30T22:39:02.865Z,99.90
2019-04-30T22:41:34.234Z,99.90
2019-04-30T22:44:04.125Z,99.90
2019-04-30T22:46:33.944Z,99.90
2019-04-30T22:49:03.712Z,99.90
2019-04-30T22:51:33.515Z,99.90
2019-04-30T22:54:03.275Z,99.90
2019-04-30T22:56:33.426Z,99.90
2019-04-30T22:59:03.080Z,99.90
2019-04-30T23:01:58.046Z,99.90
2019-04-30T23:04:38.997Z,99.90
2019-04-30T23:07:08.995Z,99.90
2019-04-30T23:09:38.745Z,99.90
2019-04-30T23:12:08.671Z,99.90
2019-04-30T23:14:38.399Z,99.90
2019-04-30T23:17:08.177Z,99.90
2019-04-30T23:19:38.223Z,99.90
2019-04-30T23:22:07.880Z,99.90
2019-04-30T23:24:37.811Z,99.90
2019-04-30T23:27:07.603Z,99.90
2019-04-30T23:29:37.434Z,99.90
2019-04-30T23:32:07.524Z,99.90
2019-04-30T23:34:37.740Z,99.90
2019-04-30T23:37:08.671Z,99.90
2019-04-30T23:39:38.424Z,99.90
2019-04-30T23:42:08.238Z,99.90
2019-04-30T23:44:38.319Z,99.90
2019-04-30T23:47:08.467Z,99.90
2019-04-30T23:49:38.540Z,99.90
2019-04-30T23:52:08.151Z,99.90
2019-04-30T23:54:37.937Z,99.90
2019-04-30T23:57:07.723Z,99.90
2019-04-30T23:59:37.728Z,99.90
